RYR14L EGSS-LEAM
Flight info
| Callsign | RYR14L |
|---|---|
| Flight time | 2h 29m |
| Altitude | 35000 |
| Route | NUGBO M183 SILVA Q41 COWLY UT71 VAPID UN859 SOPIL DCT BALAN DCT LMG DCT PIMQO DCT AGN DCT ANETO N860 DOSEK |
| Aircraft | B738/M-SDE2E3FGHIRWXY/LB1 |
Departure
| Time | 2026-04-15 11:56 |
|---|---|
| Airport | London Stansted Airport (EGSS) |
Arrival
| Time | 2026-04-15 14:25 |
|---|---|
| Airport | Almería Airport (LEAM) |
| Time | Latitude | Longitude | Altitude | Speed | Heading |
|---|---|---|---|---|---|
| 2026-04-15 09:12 | 51.89128 | 0.25850 | 350 ft | 0 kts | 225° |
| 2026-04-15 11:49 | 51.89130 | 0.25854 | 343 ft | 3 kts | 226° |
| 2026-04-15 11:49 | 51.89143 | 0.25888 | 353 ft | 4 kts | 267° |
| 2026-04-15 11:49 | 51.89137 | 0.25925 | 353 ft | 3 kts | 311° |
| 2026-04-15 11:50 | 51.89133 | 0.25934 | 355 ft | 0 kts | 313° |
| 2026-04-15 11:52 | 51.89135 | 0.25930 | 354 ft | 4 kts | 313° |
| 2026-04-15 11:52 | 51.89163 | 0.25881 | 347 ft | 8 kts | 312° |
| 2026-04-15 11:52 | 51.89203 | 0.25809 | 348 ft | 9 kts | 312° |
| 2026-04-15 11:52 | 51.89244 | 0.25737 | 347 ft | 9 kts | 313° |
| 2026-04-15 11:53 | 51.89284 | 0.25668 | 343 ft | 8 kts | 313° |
| 2026-04-15 11:53 | 51.89327 | 0.25593 | 348 ft | 10 kts | 317° |
| 2026-04-15 11:53 | 51.89382 | 0.25534 | 343 ft | 9 kts | 326° |
| 2026-04-15 11:53 | 51.89415 | 0.25450 | 345 ft | 9 kts | 273° |
| 2026-04-15 11:54 | 51.89421 | 0.25345 | 346 ft | 9 kts | 294° |
| 2026-04-15 11:54 | 51.89463 | 0.25268 | 343 ft | 7 kts | 313° |
| 2026-04-15 11:54 | 51.89486 | 0.25222 | 342 ft | 2 kts | 296° |
| 2026-04-15 11:54 | 51.89491 | 0.25188 | 344 ft | 5 kts | 282° |
| 2026-04-15 11:55 | 51.89495 | 0.25070 | 339 ft | 18 kts | 269° |
| 2026-04-15 11:55 | 51.89391 | 0.24813 | 333 ft | 51 kts | 222° |
| 2026-04-15 11:55 | 51.88961 | 0.24172 | 338 ft | 115 kts | 223° |
| 2026-04-15 11:55 | 51.88255 | 0.23081 | 448 ft | 156 kts | 223° |
| 2026-04-15 11:56 | 51.87501 | 0.21844 | 1217 ft | 150 kts | 221° |
| 2026-04-15 11:56 | 51.86770 | 0.20756 | 2106 ft | 140 kts | 219° |
| 2026-04-15 11:56 | 51.86002 | 0.19633 | 2503 ft | 163 kts | 221° |
| 2026-04-15 11:56 | 51.85081 | 0.18281 | 2751 ft | 189 kts | 221° |
| 2026-04-15 11:57 | 51.84069 | 0.16783 | 3033 ft | 204 kts | 221° |
| 2026-04-15 11:57 | 51.83127 | 0.13268 | 3997 ft | 232 kts | 274° |
| 2026-04-15 11:57 | 51.84406 | 0.10193 | 4548 ft | 277 kts | 323° |
| 2026-04-15 11:58 | 51.85634 | 0.09386 | 4991 ft | 288 kts | 342° |
| 2026-04-15 11:58 | 51.87625 | 0.08857 | 5735 ft | 293 kts | 347° |
| 2026-04-15 11:58 | 51.90005 | 0.07022 | 6629 ft | 285 kts | 310° |
| 2026-04-15 11:58 | 51.91074 | 0.04429 | 7329 ft | 274 kts | 283° |
| 2026-04-15 11:59 | 51.91318 | 0.02421 | 7797 ft | 267 kts | 265° |
| 2026-04-15 11:59 | 51.91171 | -0.00552 | 8491 ft | 265 kts | 257° |
| 2026-04-15 11:59 | 51.90918 | -0.03509 | 9307 ft | 264 kts | 256° |
| 2026-04-15 11:59 | 51.90567 | -0.06436 | 10013 ft | 265 kts | 248° |
| 2026-04-15 12:00 | 51.90000 | -0.09315 | 10322 ft | 275 kts | 246° |
| 2026-04-15 12:00 | 51.89373 | -0.12275 | 10491 ft | 287 kts | 246° |
| 2026-04-15 12:00 | 51.88558 | -0.15321 | 10683 ft | 302 kts | 233° |
| 2026-04-15 12:00 | 51.87260 | -0.18034 | 11162 ft | 308 kts | 227° |
| 2026-04-15 12:01 | 51.85861 | -0.20670 | 11834 ft | 310 kts | 226° |
| 2026-04-15 12:01 | 51.84436 | -0.23318 | 12401 ft | 315 kts | 226° |
| 2026-04-15 12:01 | 51.82961 | -0.26044 | 12669 ft | 326 kts | 226° |
| 2026-04-15 12:01 | 51.81482 | -0.28775 | 13684 ft | 318 kts | 226° |
| 2026-04-15 12:02 | 51.80029 | -0.31466 | 14472 ft | 318 kts | 226° |
| 2026-04-15 12:02 | 51.78566 | -0.34170 | 15096 ft | 321 kts | 226° |
| 2026-04-15 12:02 | 51.77090 | -0.36888 | 15752 ft | 324 kts | 226° |
| 2026-04-15 12:02 | 51.75595 | -0.39631 | 16424 ft | 327 kts | 226° |
| 2026-04-15 12:03 | 51.74084 | -0.42393 | 17097 ft | 329 kts | 226° |
| 2026-04-15 12:03 | 51.72559 | -0.45173 | 17770 ft | 332 kts | 226° |
| 2026-04-15 12:03 | 51.71016 | -0.47973 | 18385 ft | 336 kts | 226° |
| 2026-04-15 12:03 | 51.69456 | -0.50801 | 18938 ft | 339 kts | 226° |
| 2026-04-15 12:04 | 51.67888 | -0.53642 | 19574 ft | 341 kts | 225° |
| 2026-04-15 12:04 | 51.66330 | -0.56474 | 20141 ft | 343 kts | 225° |
| 2026-04-15 12:04 | 51.64730 | -0.59395 | 20709 ft | 345 kts | 225° |
| 2026-04-15 12:04 | 51.63105 | -0.62262 | 21247 ft | 346 kts | 219° |
| 2026-04-15 12:05 | 51.61079 | -0.64295 | 21777 ft | 346 kts | 200° |
| 2026-04-15 12:05 | 51.58755 | -0.65292 | 22380 ft | 347 kts | 193° |
| 2026-04-15 12:05 | 51.56400 | -0.65988 | 22901 ft | 350 kts | 191° |
| 2026-04-15 12:05 | 51.53989 | -0.66625 | 23429 ft | 352 kts | 191° |
| 2026-04-15 12:06 | 51.51559 | -0.67250 | 23890 ft | 355 kts | 191° |
| 2026-04-15 12:06 | 51.49111 | -0.67870 | 24314 ft | 357 kts | 191° |
| 2026-04-15 12:06 | 51.46651 | -0.68488 | 24686 ft | 360 kts | 191° |
| 2026-04-15 12:06 | 51.44165 | -0.69109 | 24902 ft | 363 kts | 191° |
| 2026-04-15 12:07 | 51.41671 | -0.69729 | 25048 ft | 364 kts | 191° |
| 2026-04-15 12:07 | 51.39179 | -0.70348 | 25038 ft | 361 kts | 191° |
| 2026-04-15 12:07 | 51.36699 | -0.70961 | 25044 ft | 360 kts | 191° |
| 2026-04-15 12:07 | 51.34215 | -0.71575 | 25053 ft | 361 kts | 191° |
| 2026-04-15 12:08 | 51.31738 | -0.72184 | 25006 ft | 361 kts | 191° |
| 2026-04-15 12:08 | 51.29242 | -0.72789 | 25073 ft | 364 kts | 191° |
| 2026-04-15 12:08 | 51.26720 | -0.73397 | 25423 ft | 368 kts | 191° |
| 2026-04-15 12:08 | 51.24187 | -0.74004 | 25967 ft | 367 kts | 191° |
| 2026-04-15 12:09 | 51.21669 | -0.74605 | 26413 ft | 367 kts | 191° |
| 2026-04-15 12:09 | 51.19127 | -0.75210 | 26801 ft | 370 kts | 191° |
| 2026-04-15 12:09 | 51.16572 | -0.75819 | 27177 ft | 373 kts | 191° |
| 2026-04-15 12:09 | 51.13992 | -0.76432 | 27545 ft | 376 kts | 191° |
| 2026-04-15 12:10 | 51.11402 | -0.77047 | 27941 ft | 377 kts | 191° |
| 2026-04-15 12:10 | 51.08805 | -0.77662 | 28317 ft | 379 kts | 191° |
| 2026-04-15 12:10 | 51.06187 | -0.78281 | 28655 ft | 381 kts | 191° |
| 2026-04-15 12:10 | 51.03548 | -0.78847 | 28990 ft | 385 kts | 186° |
| 2026-04-15 12:11 | 51.00849 | -0.78535 | 29292 ft | 394 kts | 172° |
| 2026-04-15 12:11 | 50.98203 | -0.77287 | 29652 ft | 401 kts | 165° |
| 2026-04-15 12:11 | 50.95655 | -0.75377 | 29975 ft | 410 kts | 156° |
| 2026-04-15 12:11 | 50.93177 | -0.73120 | 30306 ft | 410 kts | 156° |
| 2026-04-15 12:12 | 50.90708 | -0.70869 | 30684 ft | 409 kts | 157° |
| 2026-04-15 12:12 | 50.88246 | -0.68635 | 31057 ft | 407 kts | 157° |
| 2026-04-15 12:12 | 50.85783 | -0.66414 | 31367 ft | 408 kts | 157° |
| 2026-04-15 12:12 | 50.83313 | -0.64201 | 31653 ft | 409 kts | 157° |
| 2026-04-15 12:13 | 50.80833 | -0.61986 | 32011 ft | 408 kts | 157° |
| 2026-04-15 12:13 | 50.78374 | -0.59793 | 32404 ft | 406 kts | 157° |
| 2026-04-15 12:13 | 50.75911 | -0.57603 | 32729 ft | 405 kts | 158° |
| 2026-04-15 12:13 | 50.73481 | -0.55447 | 33004 ft | 406 kts | 158° |
| 2026-04-15 12:14 | 50.71024 | -0.53270 | 33306 ft | 405 kts | 158° |
| 2026-04-15 12:14 | 50.68533 | -0.51065 | 33648 ft | 404 kts | 158° |
| 2026-04-15 12:14 | 50.66122 | -0.48932 | 33948 ft | 403 kts | 158° |
| 2026-04-15 12:14 | 50.63670 | -0.46767 | 34178 ft | 404 kts | 158° |
| 2026-04-15 12:15 | 50.61215 | -0.44604 | 34338 ft | 406 kts | 158° |
| 2026-04-15 12:15 | 50.58744 | -0.42428 | 34535 ft | 407 kts | 158° |
| 2026-04-15 12:15 | 50.56282 | -0.40261 | 34784 ft | 406 kts | 158° |
| 2026-04-15 12:15 | 50.53815 | -0.38091 | 35020 ft | 406 kts | 158° |
| 2026-04-15 12:16 | 50.51343 | -0.35922 | 35077 ft | 409 kts | 158° |
| 2026-04-15 12:16 | 50.46352 | -0.31551 | 35083 ft | 411 kts | 158° |
| 2026-04-15 12:17 | 50.41395 | -0.27209 | 35063 ft | 405 kts | 158° |
| 2026-04-15 12:17 | 50.36473 | -0.22917 | 35094 ft | 406 kts | 158° |
| 2026-04-15 12:18 | 50.31524 | -0.18615 | 35088 ft | 407 kts | 158° |
| 2026-04-15 12:18 | 50.26567 | -0.14312 | 35081 ft | 408 kts | 158° |
| 2026-04-15 12:19 | 50.21596 | -0.10007 | 35096 ft | 409 kts | 158° |
| 2026-04-15 12:19 | 50.16612 | -0.05698 | 35083 ft | 409 kts | 158° |
| 2026-04-15 12:20 | 50.11623 | -0.01406 | 35082 ft | 409 kts | 159° |
| 2026-04-15 12:20 | 50.06382 | 0.01536 | 35101 ft | 397 kts | 172° |
| 2026-04-15 12:21 | 50.01016 | 0.03573 | 35102 ft | 398 kts | 172° |
| 2026-04-15 12:21 | 49.95571 | 0.05669 | 35182 ft | 407 kts | 172° |
| 2026-04-15 12:22 | 49.90054 | 0.07822 | 35510 ft | 409 kts | 172° |
| 2026-04-15 12:22 | 49.87306 | 0.08899 | 35776 ft | 407 kts | 172° |
| 2026-04-15 12:22 | 49.84556 | 0.09976 | 36022 ft | 406 kts | 172° |
| 2026-04-15 12:22 | 49.81824 | 0.11043 | 36266 ft | 405 kts | 172° |
| 2026-04-15 12:23 | 49.79099 | 0.12105 | 36529 ft | 403 kts | 172° |
| 2026-04-15 12:23 | 49.76384 | 0.13162 | 36792 ft | 402 kts | 172° |
| 2026-04-15 12:23 | 49.73669 | 0.14218 | 37020 ft | 400 kts | 172° |
| 2026-04-15 12:24 | 49.68248 | 0.16317 | 37134 ft | 405 kts | 172° |
| 2026-04-15 12:24 | 49.62740 | 0.18523 | 37142 ft | 411 kts | 171° |
| 2026-04-15 12:25 | 49.57187 | 0.20788 | 37124 ft | 415 kts | 171° |
| 2026-04-15 12:25 | 49.51631 | 0.23045 | 37089 ft | 414 kts | 171° |
| 2026-04-15 12:26 | 49.46116 | 0.25275 | 37115 ft | 407 kts | 171° |
| 2026-04-15 12:26 | 49.40635 | 0.27477 | 37137 ft | 407 kts | 171° |
| 2026-04-15 12:27 | 49.35163 | 0.29672 | 37114 ft | 406 kts | 171° |
| 2026-04-15 12:27 | 49.29696 | 0.31870 | 37118 ft | 405 kts | 171° |
| 2026-04-15 12:28 | 49.24253 | 0.34154 | 37126 ft | 406 kts | 171° |
| 2026-04-15 12:28 | 49.18802 | 0.36460 | 37133 ft | 407 kts | 171° |
| 2026-04-15 12:29 | 49.13333 | 0.38760 | 37140 ft | 409 kts | 171° |
| 2026-04-15 12:29 | 49.07828 | 0.41064 | 37127 ft | 412 kts | 171° |
| 2026-04-15 12:30 | 49.02294 | 0.43373 | 37142 ft | 413 kts | 171° |
| 2026-04-15 12:30 | 48.96729 | 0.45692 | 37140 ft | 414 kts | 170° |
| 2026-04-15 12:31 | 48.91155 | 0.48008 | 37141 ft | 416 kts | 170° |
| 2026-04-15 12:31 | 48.85577 | 0.50320 | 37140 ft | 416 kts | 170° |
| 2026-04-15 12:32 | 48.79984 | 0.52633 | 37148 ft | 417 kts | 171° |
| 2026-04-15 12:32 | 48.74382 | 0.54877 | 37149 ft | 416 kts | 171° |
| 2026-04-15 12:33 | 48.68774 | 0.57051 | 37147 ft | 415 kts | 171° |
| 2026-04-15 12:33 | 48.63208 | 0.59215 | 37139 ft | 414 kts | 171° |
| 2026-04-15 12:34 | 48.57633 | 0.61387 | 37156 ft | 414 kts | 171° |
| 2026-04-15 12:34 | 48.52057 | 0.63555 | 37158 ft | 413 kts | 171° |
| 2026-04-15 12:35 | 48.46510 | 0.65789 | 37167 ft | 413 kts | 171° |
| 2026-04-15 12:35 | 48.40966 | 0.68057 | 37153 ft | 412 kts | 171° |
| 2026-04-15 12:36 | 48.35429 | 0.70308 | 37164 ft | 412 kts | 171° |
| 2026-04-15 12:36 | 48.29893 | 0.72546 | 37166 ft | 413 kts | 171° |
| 2026-04-15 12:37 | 48.24348 | 0.74780 | 37171 ft | 413 kts | 171° |
| 2026-04-15 12:37 | 48.18787 | 0.76976 | 37163 ft | 414 kts | 171° |
| 2026-04-15 12:38 | 48.13205 | 0.79166 | 37165 ft | 415 kts | 171° |
| 2026-04-15 12:38 | 48.07626 | 0.81354 | 37172 ft | 416 kts | 171° |
| 2026-04-15 12:39 | 48.02011 | 0.83554 | 37169 ft | 417 kts | 171° |
| 2026-04-15 12:39 | 47.96396 | 0.85751 | 37167 ft | 417 kts | 171° |
| 2026-04-15 12:40 | 47.90768 | 0.87947 | 37180 ft | 419 kts | 171° |
| 2026-04-15 12:40 | 47.85123 | 0.90145 | 37181 ft | 420 kts | 171° |
| 2026-04-15 12:41 | 47.79474 | 0.92336 | 37155 ft | 421 kts | 171° |
| 2026-04-15 12:41 | 47.73798 | 0.94530 | 37177 ft | 421 kts | 171° |
| 2026-04-15 12:42 | 47.68116 | 0.96722 | 37195 ft | 422 kts | 171° |
| 2026-04-15 12:42 | 47.62427 | 0.98914 | 37192 ft | 423 kts | 171° |
| 2026-04-15 12:43 | 47.57694 | 1.00733 | 37180 ft | 423 kts | 171° |
| 2026-04-15 12:43 | 47.51991 | 1.02921 | 37192 ft | 423 kts | 171° |
| 2026-04-15 12:44 | 47.46290 | 1.05104 | 37196 ft | 424 kts | 172° |
| 2026-04-15 12:44 | 47.40543 | 1.06477 | 37201 ft | 413 kts | 186° |
| 2026-04-15 12:45 | 47.34814 | 1.06292 | 37194 ft | 412 kts | 187° |
| 2026-04-15 12:45 | 47.29065 | 1.06103 | 37208 ft | 413 kts | 186° |
| 2026-04-15 12:46 | 47.23312 | 1.05958 | 37213 ft | 414 kts | 186° |
| 2026-04-15 12:46 | 47.17547 | 1.05830 | 37214 ft | 415 kts | 186° |
| 2026-04-15 12:47 | 47.11767 | 1.05703 | 37205 ft | 416 kts | 186° |
| 2026-04-15 12:47 | 47.05977 | 1.05575 | 37217 ft | 417 kts | 186° |
| 2026-04-15 12:48 | 47.00168 | 1.05424 | 37212 ft | 417 kts | 187° |
| 2026-04-15 12:48 | 46.94367 | 1.05167 | 37198 ft | 418 kts | 187° |
| 2026-04-15 12:49 | 46.88553 | 1.04897 | 37205 ft | 418 kts | 187° |
| 2026-04-15 12:49 | 46.82729 | 1.04638 | 37211 ft | 419 kts | 187° |
| 2026-04-15 12:50 | 46.76937 | 1.04387 | 37211 ft | 419 kts | 187° |
| 2026-04-15 12:50 | 46.71103 | 1.04136 | 37212 ft | 420 kts | 187° |
| 2026-04-15 12:51 | 46.65262 | 1.03885 | 37210 ft | 420 kts | 187° |
| 2026-04-15 12:51 | 46.59422 | 1.03635 | 37215 ft | 419 kts | 187° |
| 2026-04-15 12:52 | 46.53589 | 1.03385 | 37209 ft | 419 kts | 187° |
| 2026-04-15 12:52 | 46.47769 | 1.03208 | 37214 ft | 419 kts | 186° |
| 2026-04-15 12:53 | 46.41931 | 1.03169 | 37221 ft | 419 kts | 186° |
| 2026-04-15 12:53 | 46.36100 | 1.03135 | 37206 ft | 420 kts | 186° |
| 2026-04-15 12:54 | 46.30261 | 1.03084 | 37224 ft | 420 kts | 186° |
| 2026-04-15 12:54 | 46.24406 | 1.03026 | 37227 ft | 421 kts | 186° |
| 2026-04-15 12:55 | 46.18537 | 1.02966 | 37219 ft | 423 kts | 186° |
| 2026-04-15 12:55 | 46.12645 | 1.02907 | 37222 ft | 423 kts | 186° |
| 2026-04-15 12:56 | 46.06788 | 1.02849 | 37229 ft | 424 kts | 186° |
| 2026-04-15 12:56 | 46.00836 | 1.02790 | 37224 ft | 426 kts | 186° |
| 2026-04-15 12:57 | 45.94894 | 1.02731 | 37196 ft | 427 kts | 186° |
| 2026-04-15 12:57 | 45.88992 | 1.02673 | 37211 ft | 428 kts | 186° |
| 2026-04-15 12:58 | 45.83026 | 1.02577 | 37218 ft | 428 kts | 188° |
| 2026-04-15 12:58 | 45.77084 | 1.02108 | 37222 ft | 428 kts | 189° |
| 2026-04-15 12:59 | 45.68161 | 1.01280 | 37240 ft | 429 kts | 189° |
| 2026-04-15 12:59 | 45.62206 | 1.00777 | 37230 ft | 430 kts | 189° |
| 2026-04-15 13:00 | 45.56226 | 1.00295 | 37211 ft | 430 kts | 189° |
| 2026-04-15 13:00 | 45.50258 | 0.99820 | 37224 ft | 430 kts | 189° |
| 2026-04-15 13:01 | 45.44293 | 0.99346 | 37227 ft | 430 kts | 189° |
| 2026-04-15 13:01 | 45.38318 | 0.98871 | 37227 ft | 430 kts | 189° |
| 2026-04-15 13:02 | 45.32325 | 0.98396 | 37219 ft | 430 kts | 188° |
| 2026-04-15 13:02 | 45.26349 | 0.97923 | 37227 ft | 430 kts | 189° |
| 2026-04-15 13:03 | 45.20363 | 0.97450 | 37219 ft | 431 kts | 188° |
| 2026-04-15 13:03 | 45.14378 | 0.96978 | 37208 ft | 431 kts | 188° |
| 2026-04-15 13:04 | 45.08383 | 0.96506 | 37224 ft | 432 kts | 188° |
| 2026-04-15 13:04 | 45.02369 | 0.96034 | 37217 ft | 433 kts | 188° |
| 2026-04-15 13:05 | 44.96338 | 0.95561 | 37202 ft | 435 kts | 188° |
| 2026-04-15 13:05 | 44.90289 | 0.95089 | 37212 ft | 435 kts | 188° |
| 2026-04-15 13:06 | 44.84274 | 0.94619 | 37223 ft | 437 kts | 188° |
| 2026-04-15 13:06 | 44.78206 | 0.94146 | 37212 ft | 437 kts | 188° |
| 2026-04-15 13:07 | 44.72120 | 0.93674 | 37207 ft | 438 kts | 188° |
| 2026-04-15 13:07 | 44.66024 | 0.93202 | 37213 ft | 439 kts | 188° |
| 2026-04-15 13:08 | 44.59929 | 0.92731 | 37202 ft | 439 kts | 188° |
| 2026-04-15 13:08 | 44.53830 | 0.92260 | 37226 ft | 438 kts | 188° |
| 2026-04-15 13:09 | 44.47739 | 0.91791 | 37217 ft | 438 kts | 188° |
| 2026-04-15 13:09 | 44.41647 | 0.91323 | 37206 ft | 438 kts | 188° |
| 2026-04-15 13:10 | 44.35558 | 0.90855 | 37216 ft | 438 kts | 188° |
| 2026-04-15 13:10 | 44.29467 | 0.90389 | 37221 ft | 439 kts | 188° |
| 2026-04-15 13:11 | 44.23364 | 0.89922 | 37214 ft | 439 kts | 188° |
| 2026-04-15 13:11 | 44.17244 | 0.89456 | 37215 ft | 440 kts | 188° |
| 2026-04-15 13:12 | 44.11128 | 0.88991 | 37221 ft | 441 kts | 188° |
| 2026-04-15 13:12 | 44.05004 | 0.88526 | 37215 ft | 441 kts | 188° |
| 2026-04-15 13:13 | 43.98874 | 0.88061 | 37212 ft | 441 kts | 188° |
| 2026-04-15 13:13 | 43.92772 | 0.87600 | 37218 ft | 442 kts | 188° |
| 2026-04-15 13:14 | 43.86650 | 0.86895 | 37219 ft | 439 kts | 195° |
| 2026-04-15 13:14 | 43.80663 | 0.85289 | 37210 ft | 439 kts | 197° |
| 2026-04-15 13:15 | 43.74687 | 0.83577 | 37223 ft | 439 kts | 197° |
| 2026-04-15 13:15 | 43.68675 | 0.81915 | 37219 ft | 441 kts | 196° |
| 2026-04-15 13:16 | 43.62652 | 0.80296 | 37217 ft | 442 kts | 196° |
| 2026-04-15 13:16 | 43.56609 | 0.78689 | 37221 ft | 443 kts | 196° |
| 2026-04-15 13:17 | 43.50547 | 0.77080 | 37225 ft | 444 kts | 196° |
| 2026-04-15 13:17 | 43.44488 | 0.75475 | 37233 ft | 444 kts | 196° |
| 2026-04-15 13:18 | 43.38425 | 0.73871 | 37213 ft | 443 kts | 196° |
| 2026-04-15 13:18 | 43.32374 | 0.72272 | 37214 ft | 442 kts | 196° |
| 2026-04-15 13:19 | 43.26333 | 0.70680 | 37210 ft | 441 kts | 196° |
| 2026-04-15 13:19 | 43.20309 | 0.69095 | 37199 ft | 441 kts | 196° |
| 2026-04-15 13:20 | 43.14287 | 0.67515 | 37206 ft | 440 kts | 196° |
| 2026-04-15 13:20 | 43.08276 | 0.65939 | 37220 ft | 439 kts | 196° |
| 2026-04-15 13:21 | 43.02273 | 0.64369 | 37212 ft | 440 kts | 196° |
| 2026-04-15 13:21 | 42.96257 | 0.62798 | 37201 ft | 441 kts | 196° |
| 2026-04-15 13:22 | 42.90225 | 0.61228 | 37217 ft | 441 kts | 196° |
| 2026-04-15 13:22 | 42.84181 | 0.59654 | 37210 ft | 445 kts | 196° |
| 2026-04-15 13:23 | 42.78104 | 0.58081 | 37253 ft | 445 kts | 196° |
| 2026-04-15 13:23 | 42.71969 | 0.56488 | 37218 ft | 453 kts | 196° |
| 2026-04-15 13:24 | 42.65861 | 0.54915 | 37176 ft | 445 kts | 196° |
| 2026-04-15 13:24 | 42.59807 | 0.53370 | 37181 ft | 442 kts | 196° |
| 2026-04-15 13:25 | 42.53748 | 0.51820 | 37177 ft | 443 kts | 196° |
| 2026-04-15 13:25 | 42.47693 | 0.50274 | 37168 ft | 443 kts | 196° |
| 2026-04-15 13:26 | 42.41633 | 0.48729 | 37175 ft | 444 kts | 196° |
| 2026-04-15 13:26 | 42.35561 | 0.47185 | 37157 ft | 444 kts | 196° |
| 2026-04-15 13:27 | 42.29472 | 0.45630 | 37150 ft | 446 kts | 196° |
| 2026-04-15 13:27 | 42.23367 | 0.44070 | 37156 ft | 447 kts | 196° |
| 2026-04-15 13:28 | 42.17252 | 0.42511 | 37140 ft | 448 kts | 196° |
| 2026-04-15 13:28 | 42.11117 | 0.40951 | 37154 ft | 449 kts | 196° |
| 2026-04-15 13:29 | 42.04968 | 0.39390 | 37156 ft | 451 kts | 196° |
| 2026-04-15 13:29 | 41.98795 | 0.37827 | 37151 ft | 451 kts | 196° |
| 2026-04-15 13:30 | 41.92619 | 0.36270 | 37152 ft | 451 kts | 196° |
| 2026-04-15 13:30 | 41.87490 | 0.34982 | 37152 ft | 451 kts | 196° |
| 2026-04-15 13:31 | 41.81328 | 0.33436 | 37161 ft | 451 kts | 196° |
| 2026-04-15 13:31 | 41.74167 | 0.31643 | 37144 ft | 450 kts | 196° |
| 2026-04-15 13:32 | 41.69014 | 0.30363 | 37156 ft | 449 kts | 196° |
| 2026-04-15 13:32 | 41.62872 | 0.28844 | 37155 ft | 449 kts | 196° |
| 2026-04-15 13:33 | 41.56736 | 0.27327 | 37154 ft | 448 kts | 196° |
| 2026-04-15 13:33 | 41.50596 | 0.25811 | 37151 ft | 448 kts | 196° |
| 2026-04-15 13:34 | 41.44456 | 0.24298 | 37151 ft | 449 kts | 196° |
| 2026-04-15 13:34 | 41.38294 | 0.22782 | 37139 ft | 450 kts | 196° |
| 2026-04-15 13:35 | 41.32171 | 0.21269 | 37122 ft | 451 kts | 196° |
| 2026-04-15 13:35 | 41.25970 | 0.19693 | 37148 ft | 452 kts | 196° |
| 2026-04-15 13:36 | 41.19819 | 0.18174 | 37152 ft | 453 kts | 195° |
| 2026-04-15 13:36 | 41.13609 | 0.16649 | 37144 ft | 454 kts | 196° |
| 2026-04-15 13:37 | 41.07542 | 0.14484 | 37144 ft | 451 kts | 202° |
| 2026-04-15 13:37 | 41.01554 | 0.11966 | 37143 ft | 452 kts | 202° |
| 2026-04-15 13:38 | 40.95531 | 0.09513 | 37149 ft | 453 kts | 202° |
| 2026-04-15 13:38 | 40.89489 | 0.07110 | 37127 ft | 454 kts | 202° |
| 2026-04-15 13:39 | 40.83442 | 0.04697 | 37149 ft | 453 kts | 202° |
| 2026-04-15 13:39 | 40.77414 | 0.02268 | 37148 ft | 453 kts | 202° |
| 2026-04-15 13:40 | 40.71378 | -0.00161 | 37156 ft | 454 kts | 202° |
| 2026-04-15 13:40 | 40.65346 | -0.02581 | 37148 ft | 453 kts | 202° |
| 2026-04-15 13:41 | 40.59315 | -0.04994 | 37157 ft | 452 kts | 202° |
| 2026-04-15 13:41 | 40.53299 | -0.07392 | 37167 ft | 451 kts | 202° |
| 2026-04-15 13:42 | 40.47298 | -0.09761 | 37180 ft | 450 kts | 202° |
| 2026-04-15 13:42 | 40.41311 | -0.12120 | 37194 ft | 448 kts | 202° |
| 2026-04-15 13:43 | 40.35342 | -0.14470 | 37206 ft | 447 kts | 202° |
| 2026-04-15 13:43 | 40.29385 | -0.16813 | 37206 ft | 446 kts | 202° |
| 2026-04-15 13:44 | 40.23450 | -0.19145 | 37197 ft | 446 kts | 202° |
| 2026-04-15 13:44 | 40.17537 | -0.21484 | 37203 ft | 447 kts | 202° |
| 2026-04-15 13:45 | 40.11565 | -0.23845 | 37187 ft | 450 kts | 202° |
| 2026-04-15 13:47 | 39.87328 | -0.33283 | 37157 ft | 458 kts | 202° |
| 2026-04-15 13:47 | 39.81210 | -0.35664 | 37158 ft | 459 kts | 202° |
| 2026-04-15 13:48 | 39.75083 | -0.38051 | 37151 ft | 459 kts | 201° |
| 2026-04-15 13:48 | 39.68970 | -0.40424 | 37163 ft | 459 kts | 201° |
| 2026-04-15 13:49 | 39.62846 | -0.42797 | 37154 ft | 459 kts | 201° |
| 2026-04-15 13:49 | 39.56737 | -0.45159 | 37145 ft | 458 kts | 201° |
| 2026-04-15 13:50 | 39.50643 | -0.47511 | 37157 ft | 456 kts | 201° |
| 2026-04-15 13:50 | 39.44892 | -0.50710 | 37178 ft | 446 kts | 213° |
| 2026-04-15 13:51 | 39.39457 | -0.54587 | 37163 ft | 446 kts | 214° |
| 2026-04-15 13:51 | 39.34014 | -0.58438 | 37126 ft | 446 kts | 213° |
| 2026-04-15 13:52 | 39.28586 | -0.62219 | 37150 ft | 446 kts | 213° |
| 2026-04-15 13:52 | 39.23116 | -0.66006 | 37145 ft | 446 kts | 213° |
| 2026-04-15 13:53 | 39.17643 | -0.69788 | 37177 ft | 447 kts | 213° |
| 2026-04-15 13:53 | 39.12161 | -0.73573 | 37150 ft | 447 kts | 213° |
| 2026-04-15 13:54 | 39.06673 | -0.77355 | 37144 ft | 447 kts | 213° |
| 2026-04-15 13:54 | 39.01184 | -0.81131 | 37171 ft | 447 kts | 213° |
| 2026-04-15 13:55 | 38.98453 | -0.83009 | 37048 ft | 445 kts | 213° |
| 2026-04-15 13:55 | 38.95732 | -0.84878 | 36739 ft | 439 kts | 213° |
| 2026-04-15 13:55 | 38.93059 | -0.86711 | 36377 ft | 433 kts | 213° |
| 2026-04-15 13:55 | 38.90411 | -0.88527 | 36012 ft | 429 kts | 213° |
| 2026-04-15 13:56 | 38.87793 | -0.90322 | 35618 ft | 425 kts | 213° |
| 2026-04-15 13:56 | 38.85196 | -0.92103 | 35251 ft | 422 kts | 213° |
| 2026-04-15 13:56 | 38.82621 | -0.93867 | 34876 ft | 419 kts | 213° |
| 2026-04-15 13:56 | 38.80057 | -0.95622 | 34500 ft | 417 kts | 213° |
| 2026-04-15 13:57 | 38.77501 | -0.97370 | 34116 ft | 414 kts | 212° |
| 2026-04-15 13:57 | 38.74965 | -0.99101 | 33690 ft | 412 kts | 212° |
| 2026-04-15 13:57 | 38.72450 | -1.00816 | 33295 ft | 409 kts | 213° |
| 2026-04-15 13:57 | 38.69940 | -1.02525 | 32916 ft | 406 kts | 213° |
| 2026-04-15 13:58 | 38.67451 | -1.04218 | 32552 ft | 403 kts | 213° |
| 2026-04-15 13:58 | 38.64986 | -1.05895 | 32189 ft | 401 kts | 213° |
| 2026-04-15 13:58 | 38.62531 | -1.07564 | 31810 ft | 398 kts | 213° |
| 2026-04-15 13:58 | 38.60092 | -1.09221 | 31457 ft | 396 kts | 213° |
| 2026-04-15 13:59 | 38.57666 | -1.10869 | 31107 ft | 393 kts | 213° |
| 2026-04-15 13:59 | 38.55258 | -1.12502 | 30759 ft | 391 kts | 213° |
| 2026-04-15 13:59 | 38.52861 | -1.14128 | 30403 ft | 389 kts | 213° |
| 2026-04-15 13:59 | 38.50472 | -1.15747 | 30026 ft | 387 kts | 213° |
| 2026-04-15 14:00 | 38.48106 | -1.17350 | 29640 ft | 384 kts | 213° |
| 2026-04-15 14:00 | 38.45757 | -1.18938 | 29267 ft | 381 kts | 213° |
| 2026-04-15 14:00 | 38.43422 | -1.20517 | 28896 ft | 378 kts | 213° |
| 2026-04-15 14:00 | 38.41106 | -1.22081 | 28548 ft | 375 kts | 213° |
| 2026-04-15 14:01 | 38.36568 | -1.25144 | 27838 ft | 369 kts | 213° |
| 2026-04-15 14:01 | 38.34305 | -1.26670 | 27489 ft | 367 kts | 213° |
| 2026-04-15 14:01 | 38.32057 | -1.28185 | 27138 ft | 365 kts | 213° |
| 2026-04-15 14:02 | 38.29815 | -1.29695 | 26794 ft | 363 kts | 213° |
| 2026-04-15 14:02 | 38.27591 | -1.31191 | 26451 ft | 361 kts | 212° |
| 2026-04-15 14:02 | 38.25374 | -1.32682 | 26112 ft | 359 kts | 212° |
| 2026-04-15 14:02 | 38.23171 | -1.34162 | 25771 ft | 358 kts | 212° |
| 2026-04-15 14:03 | 38.20982 | -1.35632 | 25438 ft | 356 kts | 212° |
| 2026-04-15 14:03 | 38.18792 | -1.37102 | 25102 ft | 354 kts | 212° |
| 2026-04-15 14:03 | 38.16590 | -1.38578 | 24757 ft | 353 kts | 212° |
| 2026-04-15 14:03 | 38.14420 | -1.40032 | 24427 ft | 352 kts | 212° |
| 2026-04-15 14:04 | 38.12278 | -1.41467 | 24087 ft | 351 kts | 212° |
| 2026-04-15 14:04 | 38.10119 | -1.42912 | 23747 ft | 351 kts | 212° |
| 2026-04-15 14:04 | 38.07959 | -1.44356 | 23355 ft | 350 kts | 211° |
| 2026-04-15 14:04 | 38.05815 | -1.45789 | 22998 ft | 348 kts | 211° |
| 2026-04-15 14:05 | 38.03678 | -1.47216 | 22657 ft | 346 kts | 211° |
| 2026-04-15 14:05 | 38.01556 | -1.48632 | 22329 ft | 344 kts | 211° |
| 2026-04-15 14:05 | 37.99445 | -1.50040 | 22002 ft | 342 kts | 211° |
| 2026-04-15 14:05 | 37.97343 | -1.51442 | 21676 ft | 341 kts | 211° |
| 2026-04-15 14:06 | 37.95256 | -1.52833 | 21343 ft | 339 kts | 212° |
| 2026-04-15 14:06 | 37.93168 | -1.54222 | 21026 ft | 338 kts | 211° |
| 2026-04-15 14:06 | 37.91088 | -1.55605 | 20710 ft | 337 kts | 211° |
| 2026-04-15 14:06 | 37.89015 | -1.56969 | 20389 ft | 336 kts | 211° |
| 2026-04-15 14:07 | 37.86942 | -1.58316 | 20078 ft | 335 kts | 211° |
| 2026-04-15 14:07 | 37.84864 | -1.59662 | 19764 ft | 334 kts | 210° |
| 2026-04-15 14:07 | 37.82797 | -1.61000 | 19446 ft | 333 kts | 211° |
| 2026-04-15 14:07 | 37.80737 | -1.62333 | 19131 ft | 333 kts | 211° |
| 2026-04-15 14:08 | 37.78676 | -1.63668 | 18810 ft | 332 kts | 211° |
| 2026-04-15 14:08 | 37.76620 | -1.64999 | 18486 ft | 332 kts | 211° |
| 2026-04-15 14:08 | 37.74570 | -1.66327 | 18123 ft | 332 kts | 210° |
| 2026-04-15 14:08 | 37.72514 | -1.67656 | 17779 ft | 331 kts | 210° |
| 2026-04-15 14:09 | 37.70473 | -1.68976 | 17469 ft | 329 kts | 210° |
| 2026-04-15 14:09 | 37.68442 | -1.70289 | 17135 ft | 328 kts | 210° |
| 2026-04-15 14:09 | 37.66420 | -1.71594 | 16825 ft | 326 kts | 210° |
| 2026-04-15 14:09 | 37.64403 | -1.72897 | 16513 ft | 324 kts | 210° |
| 2026-04-15 14:10 | 37.62401 | -1.74188 | 16222 ft | 323 kts | 210° |
| 2026-04-15 14:10 | 37.60401 | -1.75477 | 15904 ft | 322 kts | 210° |
| 2026-04-15 14:10 | 37.58410 | -1.76760 | 15595 ft | 321 kts | 210° |
| 2026-04-15 14:10 | 37.56432 | -1.78035 | 15288 ft | 320 kts | 210° |
| 2026-04-15 14:11 | 37.54450 | -1.79311 | 14973 ft | 319 kts | 210° |
| 2026-04-15 14:11 | 37.52474 | -1.80582 | 14661 ft | 319 kts | 210° |
| 2026-04-15 14:11 | 37.50496 | -1.81854 | 14347 ft | 319 kts | 210° |
| 2026-04-15 14:11 | 37.48517 | -1.83125 | 14030 ft | 319 kts | 210° |
| 2026-04-15 14:12 | 37.46535 | -1.84398 | 13678 ft | 320 kts | 209° |
| 2026-04-15 14:12 | 37.44563 | -1.85664 | 13347 ft | 318 kts | 209° |
| 2026-04-15 14:12 | 37.42618 | -1.86911 | 13034 ft | 317 kts | 209° |
| 2026-04-15 14:12 | 37.40662 | -1.88165 | 12722 ft | 315 kts | 209° |
| 2026-04-15 14:13 | 37.38712 | -1.89414 | 12413 ft | 314 kts | 209° |
| 2026-04-15 14:13 | 37.36765 | -1.90660 | 12098 ft | 313 kts | 209° |
| 2026-04-15 14:13 | 37.34832 | -1.91898 | 11802 ft | 312 kts | 208° |
| 2026-04-15 14:13 | 37.32901 | -1.93133 | 11496 ft | 310 kts | 209° |
| 2026-04-15 14:14 | 37.30985 | -1.94358 | 11188 ft | 309 kts | 208° |
| 2026-04-15 14:14 | 37.29069 | -1.95582 | 10883 ft | 307 kts | 208° |
| 2026-04-15 14:14 | 37.27171 | -1.96794 | 10584 ft | 306 kts | 208° |
| 2026-04-15 14:14 | 37.25281 | -1.98000 | 10348 ft | 302 kts | 208° |
| 2026-04-15 14:15 | 37.23437 | -1.99192 | 10195 ft | 295 kts | 210° |
| 2026-04-15 14:15 | 37.21629 | -2.00402 | 9850 ft | 294 kts | 210° |
| 2026-04-15 14:15 | 37.19826 | -2.01618 | 9545 ft | 294 kts | 210° |
| 2026-04-15 14:15 | 37.18025 | -2.02833 | 9257 ft | 294 kts | 210° |
| 2026-04-15 14:16 | 37.16223 | -2.04045 | 8954 ft | 292 kts | 210° |
| 2026-04-15 14:16 | 37.14442 | -2.05241 | 8666 ft | 290 kts | 210° |
| 2026-04-15 14:16 | 37.12540 | -2.06027 | 8316 ft | 289 kts | 182° |
| 2026-04-15 14:16 | 37.10558 | -2.05852 | 8038 ft | 281 kts | 173° |
| 2026-04-15 14:17 | 37.08664 | -2.05577 | 7901 ft | 268 kts | 174° |
| 2026-04-15 14:17 | 37.06830 | -2.05329 | 7619 ft | 266 kts | 174° |
| 2026-04-15 14:17 | 37.05616 | -2.05177 | 7539 ft | 260 kts | 174° |
| 2026-04-15 14:17 | 37.03861 | -2.04971 | 7404 ft | 249 kts | 175° |
| 2026-04-15 14:18 | 37.02151 | -2.04781 | 7051 ft | 248 kts | 175° |
| 2026-04-15 14:18 | 37.00430 | -2.04596 | 6697 ft | 248 kts | 175° |
| 2026-04-15 14:18 | 36.98711 | -2.04418 | 6369 ft | 244 kts | 175° |
| 2026-04-15 14:18 | 36.96519 | -2.04278 | 5898 ft | 235 kts | 189° |
| 2026-04-15 14:19 | 36.95031 | -2.04968 | 5635 ft | 220 kts | 210° |
| 2026-04-15 14:19 | 36.94173 | -2.05617 | 5536 ft | 208 kts | 217° |
| 2026-04-15 14:19 | 36.93011 | -2.06650 | 5058 ft | 210 kts | 217° |
| 2026-04-15 14:19 | 36.91840 | -2.07784 | 4539 ft | 211 kts | 226° |
| 2026-04-15 14:20 | 36.91195 | -2.09340 | 4275 ft | 198 kts | 257° |
| 2026-04-15 14:20 | 36.90848 | -2.10977 | 4005 ft | 194 kts | 247° |
| 2026-04-15 14:20 | 36.90378 | -2.12531 | 3786 ft | 189 kts | 252° |
| 2026-04-15 14:20 | 36.90024 | -2.14100 | 3523 ft | 186 kts | 252° |
| 2026-04-15 14:21 | 36.89655 | -2.15634 | 3285 ft | 183 kts | 251° |
| 2026-04-15 14:21 | 36.89281 | -2.17148 | 3039 ft | 180 kts | 251° |
| 2026-04-15 14:21 | 36.88917 | -2.18623 | 2806 ft | 175 kts | 251° |
| 2026-04-15 14:21 | 36.88570 | -2.20033 | 2581 ft | 164 kts | 251° |
| 2026-04-15 14:22 | 36.88245 | -2.21352 | 2355 ft | 154 kts | 251° |
| 2026-04-15 14:22 | 36.87935 | -2.22611 | 2149 ft | 151 kts | 250° |
| 2026-04-15 14:22 | 36.87626 | -2.23859 | 1966 ft | 155 kts | 250° |
| 2026-04-15 14:22 | 36.87308 | -2.25152 | 1739 ft | 155 kts | 252° |
| 2026-04-15 14:23 | 36.87006 | -2.26381 | 1571 ft | 141 kts | 252° |
| 2026-04-15 14:23 | 36.86730 | -2.27508 | 1374 ft | 133 kts | 251° |
| 2026-04-15 14:23 | 36.86456 | -2.28621 | 1203 ft | 134 kts | 251° |
| 2026-04-15 14:23 | 36.86180 | -2.29759 | 1038 ft | 141 kts | 252° |
| 2026-04-15 14:24 | 36.85886 | -2.30949 | 807 ft | 141 kts | 250° |
| 2026-04-15 14:24 | 36.85598 | -2.32122 | 625 ft | 144 kts | 251° |
| 2026-04-15 14:24 | 36.85307 | -2.33306 | 419 ft | 144 kts | 252° |
| 2026-04-15 14:24 | 36.85015 | -2.34491 | 252 ft | 142 kts | 251° |
| 2026-04-15 14:25 | 36.84723 | -2.35672 | 61 ft | 141 kts | 250° |
| 2026-04-15 14:25 | 36.84450 | -2.36788 | 52 ft | 112 kts | 256° |
| 2026-04-15 14:25 | 36.84292 | -2.37426 | 57 ft | 53 kts | 251° |
| 2026-04-15 14:25 | 36.84201 | -2.37830 | 59 ft | 40 kts | 259° |
| 2026-04-15 14:26 | 36.84208 | -2.38081 | 55 ft | 21 kts | 278° |
| 2026-04-15 14:26 | 36.84234 | -2.38186 | 60 ft | 8 kts | 314° |
| 2026-04-15 14:26 | 36.84280 | -2.38180 | 58 ft | 8 kts | 52° |
| 2026-04-15 14:26 | 36.84297 | -2.38118 | 59 ft | 7 kts | 73° |
| 2026-04-15 14:27 | 36.84311 | -2.38057 | 62 ft | 7 kts | 75° |
| 2026-04-15 14:27 | 36.84325 | -2.37997 | 58 ft | 8 kts | 72° |
| 2026-04-15 14:27 | 36.84345 | -2.37921 | 62 ft | 11 kts | 72° |
| 2026-04-15 14:27 | 36.84369 | -2.37826 | 59 ft | 11 kts | 72° |
| 2026-04-15 14:28 | 36.84392 | -2.37732 | 64 ft | 11 kts | 73° |
| 2026-04-15 14:28 | 36.84415 | -2.37634 | 62 ft | 12 kts | 73° |
| 2026-04-15 14:28 | 36.84440 | -2.37537 | 58 ft | 11 kts | 69° |
| 2026-04-15 14:28 | 36.84509 | -2.37500 | 58 ft | 11 kts | 16° |
| 2026-04-15 14:29 | 36.84545 | -2.37419 | 62 ft | 11 kts | 73° |
| 2026-04-15 14:29 | 36.84563 | -2.37356 | 64 ft | 4 kts | 47° |
| 2026-04-15 14:29 | 36.84591 | -2.37350 | 67 ft | 4 kts | 356° |
| 2026-04-15 14:29 | 36.84620 | -2.37357 | 68 ft | 4 kts | 349° |
| 2026-04-15 14:30 | 36.84644 | -2.37357 | 69 ft | 2 kts | 35° |
| 2026-04-15 14:30 | 36.84639 | -2.37339 | 63 ft | 0 kts | 133° |
| 2026-04-15 14:30 | 36.84635 | -2.37333 | 61 ft | 0 kts | 128° |
| 2026-04-15 14:30 | 36.84633 | -2.37329 | 62 ft | 0 kts | 124° |
| 2026-04-15 14:31 | 36.84633 | -2.37328 | 62 ft | 0 kts | 124° |